Pagina principale
METAR-TAF:

METAR-TAF

Aeroporti :

Angers, Francia

latitudine: 47-33-37N, longitudine: 000-18-44W, altezza: 59 m

Osservazione

Il bollettino è stato emesso 25 minuti fa, alle 04:00 UTC
Vento 13 kt da nord/nord-est, variando fra nord e nord-est
Temperature 1°C
Umidità 55%
Pressione 1028 hPa
Visibilità 10 km o più
nessuna nube inferiore a 1500 m e nessun cumulonembo

METAR: LFJR 300400Z AUTO 02013KT 350V050 CAVOK 01/M07 Q1028

Ora: 06:25 (04:25 UTC)


TAF: mancante

Osservazioni e previsioni meteorologiche di più di 4000 aeroporti (messaggi METAR e TAF).

Le stazioni disponibili sono rappresentate dai dischi gialli e rossi sulla carta.

Puntare il mouse per vedere il nome della stazione.

Clicca sopra per visualizzare le osservazioni e previsioni meteorologiche.

Per cambiare la mappa : fare clic sui pulsanti verdi con una croce nera per ingrandire, il pulsante verde con un trattino per diminuire, o sulla freccia verde per le mappe adiacenti.


METAR-TAF: